createdAt,value
2022-11-15T07:53:31.914Z,7.31
2022-11-15T07:55:54.548Z,7.31
2022-11-15T07:58:15.552Z,6.88
2022-11-15T08:00:36.694Z,6.97
2022-11-15T08:03:08.432Z,6.91
2022-11-15T08:05:28.877Z,7.07
2022-11-15T08:07:52.601Z,7.31
2022-11-15T08:10:13.464Z,7.31
2022-11-15T08:12:35.610Z,7.39
2022-11-15T08:14:57.459Z,7.16
2022-11-15T08:17:18.350Z,7.16
2022-11-15T08:19:39.155Z,7.31
2022-11-15T08:22:00.207Z,7.39
2022-11-15T08:24:21.507Z,7.38
2022-11-15T08:26:42.173Z,7.46
2022-11-15T08:29:03.590Z,7.06
2022-11-15T08:31:24.068Z,7.15
2022-11-15T08:33:45.687Z,7.33
2022-11-15T08:36:06.400Z,7.39
2022-11-15T08:38:29.974Z,7.48
2022-11-15T08:41:00.601Z,7.35
2022-11-15T08:43:21.773Z,7.28
2022-11-15T08:45:42.488Z,7.48
2022-11-15T08:48:04.242Z,7.55
2022-11-15T08:50:25.004Z,7.51
2022-11-15T08:52:46.117Z,7.52
2022-11-15T08:55:07.075Z,7.51
2022-11-15T08:57:31.234Z,7.58
2022-11-15T08:59:51.830Z,7.71
2022-11-15T09:02:15.158Z,7.76
2022-11-15T09:04:35.834Z,7.75
2022-11-15T09:06:56.932Z,7.79
2022-11-15T09:09:17.824Z,8.00
2022-11-15T09:11:38.577Z,8.02
2022-11-15T09:13:59.526Z,7.93
2022-11-15T09:16:20.164Z,8.06
2022-11-15T09:18:41.150Z,8.11
2022-11-15T09:21:03.582Z,8.29
2022-11-15T09:23:25.585Z,8.16
2022-11-15T09:25:46.443Z,8.41
2022-11-15T09:28:08.759Z,8.40
2022-11-15T09:30:29.737Z,8.52
2022-11-15T09:32:51.387Z,8.26
2022-11-15T09:35:12.122Z,8.61
2022-11-15T09:37:33.492Z,8.64
2022-11-15T09:39:54.478Z,8.58
2022-11-15T09:42:18.330Z,8.73
2022-11-15T09:44:42.403Z,8.37
2022-11-15T09:47:28.038Z,8.47
2022-11-15T09:49:32.818Z,8.44
2022-11-15T09:51:47.833Z,8.51
2022-11-15T09:54:37.432Z,8.47
2022-11-15T09:56:29.700Z,8.55
2022-11-15T09:58:31.951Z,8.55
2022-11-15T10:00:47.219Z,8.65
2022-11-15T10:03:23.044Z,8.64
2022-11-15T10:05:27.183Z,8.42
2022-11-15T10:07:40.758Z,8.56
2022-11-15T10:09:56.304Z,8.58
2022-11-15T10:11:58.759Z,8.69
2022-11-15T10:14:05.987Z,8.59
2022-11-15T10:16:14.559Z,8.46
2022-11-15T10:18:19.688Z,8.77
2022-11-15T10:20:30.245Z,8.60
2022-11-15T10:22:49.734Z,8.88
2022-11-15T10:24:58.841Z,8.79
2022-11-15T10:27:01.468Z,8.70
2022-11-15T10:29:04.032Z,8.52
2022-11-15T10:31:23.507Z,8.60
2022-11-15T10:33:37.589Z,8.62
2022-11-15T10:35:40.926Z,8.56
2022-11-15T10:37:43.171Z,8.51
2022-11-15T10:40:02.979Z,8.52
2022-11-15T10:42:28.845Z,8.49
2022-11-15T10:44:31.354Z,8.18
2022-11-15T10:46:47.263Z,8.45
2022-11-15T10:48:50.411Z,8.57
2022-11-15T10:50:54.580Z,8.59
2022-11-15T10:52:56.863Z,8.59
2022-11-15T10:55:03.503Z,8.66
2022-11-15T10:57:16.818Z,8.81
2022-11-15T10:59:27.368Z,8.92
2022-11-15T11:01:33.406Z,8.78
2022-11-15T11:03:40.789Z,8.95
2022-11-15T11:05:43.321Z,8.86
2022-11-15T11:08:00.350Z,8.88
2022-11-15T11:10:49.363Z,8.94
2022-11-15T11:12:40.499Z,9.10
2022-11-15T11:14:43.000Z,8.63
2022-11-15T11:16:53.863Z,8.63
2022-11-15T11:19:04.964Z,8.70
2022-11-15T11:21:44.692Z,8.54
2022-11-15T11:23:57.751Z,8.50
2022-11-15T11:26:12.899Z,8.56
2022-11-15T11:28:42.955Z,8.59
2022-11-15T11:30:59.973Z,8.73
2022-11-15T11:33:13.394Z,8.51
2022-11-15T11:35:31.738Z,8.42
2022-11-15T11:37:55.948Z,8.34
2022-11-15T11:40:16.460Z,8.41
2022-11-15T11:42:33.587Z,8.59
2022-11-15T11:44:51.803Z,8.67
2022-11-15T11:47:09.057Z,8.59
2022-11-15T11:49:21.830Z,8.60
2022-11-15T11:51:33.704Z,8.31
2022-11-15T11:53:55.461Z,8.34
2022-11-15T11:56:03.275Z,8.44
2022-11-15T11:58:20.884Z,8.43
2022-11-15T12:00:25.118Z,8.55
2022-11-15T12:02:41.817Z,8.52
2022-11-15T12:04:52.569Z,8.59
2022-11-15T12:07:04.646Z,8.49
2022-11-15T12:09:37.507Z,8.62
2022-11-15T12:12:13.924Z,8.67
2022-11-15T12:14:35.231Z,8.55
2022-11-15T12:16:40.505Z,8.73
2022-11-15T12:18:49.146Z,8.73
2022-11-15T12:21:05.047Z,8.67
2022-11-15T12:23:14.500Z,8.78
2022-11-15T12:25:29.802Z,8.84
2022-11-15T12:27:37.211Z,8.71
2022-11-15T12:29:39.362Z,8.47
2022-11-15T12:31:45.807Z,8.55
2022-11-15T12:33:49.422Z,8.41
2022-11-15T12:36:00.875Z,8.37
2022-11-15T12:38:03.357Z,8.60
2022-11-15T12:40:25.478Z,8.52
2022-11-15T12:42:27.731Z,8.53
2022-11-15T12:44:32.779Z,8.50
2022-11-15T12:46:41.609Z,8.00
2022-11-15T12:48:43.720Z,8.09
2022-11-15T12:50:51.827Z,8.33
2022-11-15T12:53:25.610Z,8.20
2022-11-15T12:55:33.890Z,8.06
2022-11-15T12:57:40.311Z,8.26
2022-11-15T12:59:59.586Z,8.26
2022-11-15T13:02:02.414Z,8.16
2022-11-15T13:04:20.005Z,8.22
2022-11-15T13:07:00.232Z,8.44
2022-11-15T13:09:02.640Z,8.34
2022-11-15T13:11:49.250Z,8.21
2022-11-15T13:13:51.869Z,8.27
2022-11-15T13:16:00.624Z,8.29
2022-11-15T13:18:24.588Z,8.14
2022-11-15T13:20:32.478Z,8.23
2022-11-15T13:22:55.829Z,8.32
2022-11-15T13:24:58.563Z,8.29
2022-11-15T13:27:01.117Z,8.33
2022-11-15T13:29:04.268Z,8.45
2022-11-15T13:31:18.673Z,8.57
2022-11-15T13:33:25.428Z,8.53
2022-11-15T13:35:29.613Z,8.44
2022-11-15T13:37:33.499Z,8.51
2022-11-15T13:39:38.475Z,8.41
2022-11-15T13:41:50.920Z,8.47
2022-11-15T13:43:55.481Z,8.40
2022-11-15T13:46:24.539Z,8.29
2022-11-15T13:48:31.031Z,8.21
2022-11-15T13:50:39.305Z,8.08
2022-11-15T13:52:46.636Z,8.11
2022-11-15T13:54:59.473Z,8.32
2022-11-15T13:57:09.904Z,8.47
2022-11-15T13:59:39.831Z,8.53
2022-11-15T14:01:44.480Z,8.60
2022-11-15T14:03:58.293Z,8.51
2022-11-15T14:06:08.660Z,8.48
2022-11-15T14:08:23.458Z,8.37
2022-11-15T14:10:37.248Z,8.35
2022-11-15T14:12:39.918Z,8.25
2022-11-15T14:14:47.052Z,8.28
2022-11-15T14:16:56.143Z,8.35
2022-11-15T14:18:58.400Z,8.14
2022-11-15T14:21:08.885Z,8.15
2022-11-15T14:23:28.739Z,8.15
2022-11-15T14:25:32.961Z,8.11
2022-11-15T14:27:35.283Z,8.00
2022-11-15T14:29:37.794Z,7.71
2022-11-15T14:31:43.868Z,7.71
2022-11-15T14:33:46.503Z,7.59
2022-11-15T14:35:49.553Z,7.76
2022-11-15T14:37:51.937Z,7.85
2022-11-15T14:39:54.597Z,7.91
2022-11-15T14:41:57.076Z,8.05
2022-11-15T14:43:59.303Z,7.71
2022-11-15T14:46:01.579Z,7.81
2022-11-15T14:48:04.545Z,7.83
2022-11-15T14:50:06.942Z,7.97
2022-11-15T14:52:34.353Z,8.00
2022-11-15T14:54:36.884Z,7.95
2022-11-15T14:56:39.136Z,7.82
2022-11-15T14:58:41.484Z,7.79
2022-11-15T15:00:44.050Z,7.74
2022-11-15T15:02:47.974Z,7.73
2022-11-15T15:04:50.487Z,7.77
2022-11-15T15:06:53.070Z,7.72
2022-11-15T15:08:55.335Z,7.78
2022-11-15T15:10:57.783Z,7.88
2022-11-15T15:13:00.329Z,7.89
2022-11-15T15:15:02.545Z,7.86
2022-11-15T15:17:05.833Z,7.86
2022-11-15T15:19:08.304Z,7.91
2022-11-15T15:21:25.119Z,8.00
2022-11-15T15:23:30.240Z,7.82
2022-11-15T15:25:35.734Z,7.72
2022-11-15T15:27:37.933Z,7.78
2022-11-15T15:29:40.562Z,7.85
2022-11-15T15:31:42.985Z,7.82
2022-11-15T15:33:46.020Z,7.87
2022-11-15T15:35:48.367Z,7.91
2022-11-15T15:37:52.158Z,7.70
2022-11-15T15:39:56.215Z,7.70
2022-11-15T15:41:58.469Z,7.74
2022-11-15T15:44:01.121Z,7.62
2022-11-15T15:46:03.334Z,7.86
2022-11-15T15:48:06.274Z,7.66
2022-11-15T15:50:21.302Z,7.63
2022-11-15T15:52:23.510Z,7.53
2022-11-15T15:54:25.748Z,7.68
2022-11-15T15:56:29.185Z,7.68
2022-11-15T15:58:33.135Z,7.72
2022-11-15T16:00:35.713Z,7.76
2022-11-15T16:02:40.618Z,7.81
2022-11-15T16:04:43.167Z,7.81
2022-11-15T16:06:48.060Z,7.94
2022-11-15T16:09:13.719Z,7.97
2022-11-15T16:11:12.750Z,7.91
2022-11-15T16:13:15.424Z,7.75
2022-11-15T16:15:18.660Z,7.76
2022-11-15T16:17:24.339Z,7.81
2022-11-15T16:19:26.676Z,7.67
2022-11-15T16:21:29.245Z,7.65
2022-11-15T16:23:31.533Z,7.69
2022-11-15T16:25:56.633Z,7.72
2022-11-15T16:27:59.670Z,7.72
2022-11-15T16:30:01.875Z,7.75
2022-11-15T16:32:04.097Z,7.91
2022-11-15T16:34:07.347Z,7.74
2022-11-15T16:36:30.368Z,7.72
2022-11-15T16:38:34.259Z,7.86
2022-11-15T16:40:37.316Z,7.70
2022-11-15T16:42:39.567Z,7.59
2022-11-15T16:44:42.063Z,7.94
2022-11-15T16:46:46.788Z,7.75
2022-11-15T16:48:50.252Z,7.59
2022-11-15T16:50:57.462Z,7.58
2022-11-15T16:53:00.056Z,7.77
2022-11-15T16:55:02.269Z,7.69
2022-11-15T16:57:04.548Z,7.71
2022-11-15T16:59:11.072Z,7.69
2022-11-15T17:01:23.786Z,7.67
2022-11-15T17:03:26.354Z,7.67
2022-11-15T17:05:29.356Z,7.55
2022-11-15T17:07:31.640Z,7.48
2022-11-15T17:09:34.505Z,7.56
2022-11-15T17:11:37.114Z,7.69
2022-11-15T17:13:39.646Z,7.69
2022-11-15T17:15:42.149Z,7.79
2022-11-15T17:17:45.057Z,7.44
2022-11-15T17:19:47.726Z,7.40
2022-11-15T17:21:50.003Z,7.48
2022-11-15T17:23:53.417Z,7.59
2022-11-15T17:26:17.616Z,7.63
2022-11-15T17:28:23.315Z,7.60
2022-11-15T17:30:26.319Z,7.61
2022-11-15T17:32:28.997Z,7.63
2022-11-15T17:34:31.686Z,7.66
2022-11-15T17:36:35.178Z,7.68
2022-11-15T17:38:37.788Z,7.62
2022-11-15T17:40:40.503Z,7.62
2022-11-15T17:42:43.232Z,7.69
2022-11-15T17:44:45.409Z,7.69
2022-11-15T17:46:47.662Z,7.60
2022-11-15T17:48:50.564Z,7.59
2022-11-15T17:51:01.334Z,7.66
2022-11-15T17:53:03.564Z,7.54
2022-11-15T17:55:06.499Z,7.41
2022-11-15T17:57:09.132Z,7.33
2022-11-15T17:59:15.865Z,7.33
2022-11-15T18:01:28.219Z,7.38
2022-11-15T18:03:34.113Z,7.41
2022-11-15T18:05:36.645Z,7.48
2022-11-15T18:07:39.843Z,7.52
2022-11-15T18:09:44.608Z,7.48
2022-11-15T18:11:51.446Z,7.56
2022-11-15T18:13:57.184Z,7.67
2022-11-15T18:16:02.799Z,7.82
2022-11-15T18:18:05.015Z,7.80
2022-11-15T18:20:07.745Z,7.75
2022-11-15T18:22:10.402Z,7.77
2022-11-15T18:24:12.937Z,7.70
2022-11-15T18:26:17.379Z,7.80
2022-11-15T18:28:20.205Z,7.76
2022-11-15T18:30:22.854Z,7.68
2022-11-15T18:32:25.503Z,7.56
2022-11-15T18:34:32.242Z,7.67
2022-11-15T18:36:36.456Z,7.51
2022-11-15T18:38:39.442Z,7.63
2022-11-15T18:40:41.996Z,7.58
2022-11-15T18:42:44.401Z,7.51
2022-11-15T18:44:46.899Z,7.53
2022-11-15T18:46:49.897Z,7.53
2022-11-15T18:48:53.822Z,7.59
2022-11-15T18:51:07.369Z,7.76
2022-11-15T18:53:10.449Z,7.47
2022-11-15T18:55:14.623Z,7.44
2022-11-15T18:57:18.226Z,7.45
2022-11-15T18:59:20.922Z,7.25
2022-11-15T19:01:26.004Z,7.28
2022-11-15T19:05:48.615Z,7.18
2022-11-15T19:07:51.008Z,7.06
2022-11-15T19:09:53.654Z,7.07
2022-11-15T19:11:56.563Z,7.05
2022-11-15T19:14:24.409Z,7.23
2022-11-15T19:16:27.862Z,7.04
2022-11-15T19:18:32.026Z,7.26
2022-11-15T19:20:36.323Z,7.25
2022-11-15T19:22:38.850Z,7.37
2022-11-15T19:24:41.774Z,7.51
2022-11-15T19:26:45.135Z,7.52
2022-11-15T19:29:02.438Z,7.33
2022-11-15T19:31:08.933Z,7.58
2022-11-15T19:33:11.670Z,7.47
2022-11-15T19:35:13.955Z,7.49
2022-11-15T19:37:16.458Z,7.40
2022-11-15T19:39:18.971Z,7.51
2022-11-15T19:41:23.498Z,7.52
2022-11-15T19:43:27.065Z,7.68
2022-11-15T19:45:29.633Z,7.58
2022-11-15T19:47:32.316Z,7.43
2022-11-15T19:49:34.928Z,7.28
2022-11-15T19:51:38.002Z,7.50
2022-11-15T19:53:41.580Z,7.39
2022-11-15T19:56:06.598Z,7.22
2022-11-15T19:58:08.992Z,7.09
2022-11-15T20:00:11.573Z,7.29
2022-11-15T20:02:14.476Z,7.53
2022-11-15T20:04:17.240Z,7.55
2022-11-15T20:06:21.812Z,7.53
2022-11-15T20:08:24.391Z,7.54
2022-11-15T20:10:26.739Z,7.59
2022-11-15T20:12:28.945Z,7.63
2022-11-15T20:14:31.818Z,7.43
2022-11-15T20:16:34.294Z,7.38
2022-11-15T20:18:37.135Z,7.40
2022-11-15T20:20:40.208Z,7.40
2022-11-15T20:22:43.095Z,7.31
2022-11-15T20:24:45.772Z,7.37
2022-11-15T20:26:48.362Z,7.34
2022-11-15T20:28:50.661Z,7.43
2022-11-15T20:30:55.629Z,7.26
2022-11-15T20:32:58.150Z,7.43
2022-11-15T20:35:00.368Z,7.47
2022-11-15T20:37:06.085Z,7.59
2022-11-15T20:39:08.745Z,7.47
2022-11-15T20:41:14.581Z,7.58
2022-11-15T20:43:19.199Z,7.54
2022-11-15T20:45:22.067Z,7.31
2022-11-15T20:47:29.173Z,7.47
2022-11-15T20:49:32.909Z,7.46
2022-11-15T20:51:36.939Z,7.50
2022-11-15T20:53:40.856Z,7.49
2022-11-15T20:55:47.734Z,7.49
2022-11-15T20:57:50.776Z,7.60
2022-11-15T20:59:53.287Z,7.59
2022-11-15T21:01:55.641Z,7.68
2022-11-15T21:03:58.276Z,7.69
2022-11-15T21:06:00.893Z,7.57
2022-11-15T21:08:03.246Z,7.58
2022-11-15T21:10:24.964Z,7.44
2022-11-15T21:12:27.438Z,7.47
2022-11-15T21:14:30.081Z,7.58
2022-11-15T21:16:32.563Z,7.55
2022-11-15T21:18:35.176Z,7.39
2022-11-15T21:20:37.911Z,7.46
2022-11-15T21:22:40.702Z,7.56
2022-11-15T21:24:43.519Z,7.46
2022-11-15T21:26:45.881Z,7.56
2022-11-15T21:28:48.450Z,7.46
2022-11-15T21:30:58.133Z,7.63
2022-11-15T21:33:00.377Z,7.47
2022-11-15T21:35:02.896Z,7.46
2022-11-15T21:37:05.931Z,7.56
2022-11-15T21:39:08.131Z,7.68
2022-11-15T21:41:10.630Z,7.67
2022-11-15T21:43:12.830Z,7.61
2022-11-15T21:45:15.045Z,7.73
2022-11-15T21:47:17.587Z,7.76
2022-11-15T21:49:20.945Z,7.76
2022-11-15T21:51:23.692Z,7.76
2022-11-15T21:53:26.922Z,7.75
2022-11-15T21:55:29.236Z,7.71
2022-11-15T21:57:31.583Z,7.71
2022-11-15T21:59:34.042Z,7.75
2022-11-15T22:01:55.596Z,7.62
2022-11-15T22:03:58.157Z,7.51
2022-11-15T22:06:00.845Z,7.48
2022-11-15T22:08:03.162Z,7.61
2022-11-15T22:10:06.300Z,7.57
2022-11-15T22:12:08.522Z,7.63
2022-11-15T22:14:10.766Z,7.53
2022-11-15T22:16:13.271Z,7.62
2022-11-15T22:18:15.585Z,7.54
2022-11-15T22:20:42.999Z,7.55
2022-11-15T22:22:40.350Z,7.36
2022-11-15T22:24:42.607Z,7.30
2022-11-15T22:26:44.907Z,7.29
2022-11-15T22:28:47.541Z,7.27
2022-11-15T22:30:51.956Z,7.46
2022-11-15T22:32:54.478Z,7.25
2022-11-15T22:34:56.948Z,7.19
2022-11-15T22:37:19.774Z,7.08
2022-11-15T22:39:21.407Z,7.03
2022-11-15T22:41:23.923Z,6.83
2022-11-15T22:43:27.235Z,6.79
2022-11-15T22:45:29.516Z,6.89
2022-11-15T22:47:31.990Z,6.91
2022-11-15T22:49:34.221Z,6.91
2022-11-15T22:51:36.477Z,6.86
2022-11-15T22:53:39.043Z,6.83
2022-11-15T22:55:42.018Z,6.86
2022-11-15T22:57:44.647Z,7.04
2022-11-15T22:59:47.408Z,7.07
2022-11-15T23:01:51.011Z,7.12
2022-11-15T23:03:53.383Z,7.13
2022-11-15T23:06:01.661Z,7.19
2022-11-15T23:08:04.086Z,7.16
2022-11-15T23:10:25.544Z,7.23
